Fairfield Center, Indiana
Current Conditions -  °F | °C
As of 6:55 AM on Friday 31 Oct 2014 (Local Time) from KGWB Reporting Station
Light Rain Light Rain  
Wind Chill:   Ceiling: 4300
Heat Index:   Visibility: 10mi
Dew Point:   Wind: 5mph
Humidity: 76%   Direction: 250°WSW
Pressure: 29.93"   Gusts: NA
Location:  41.4621°N, 85.1517°W
Report Text: KGWB 311055Z AUTO 25004KT 10SM -RA SCT031 BKN043 OVC080 06/02 A2993 RMK AO2
Loading
Personal Weather Stations






























Interactive Weather Map
Tropical Storm Tracking
New forecast layout! Learn more

10-Day Weather Forecast

Advertisements
Track Severe Weather on mobile